Georgetown, Mississippi
Current Conditions -  °F | °C
As of 4:15 PM on Sunday 23 Nov 2014 (Local Time) from K1R7 Reporting Station
Haze Haze  
Wind Chill: 72°   Ceiling: Unl
Heat Index: 72°   Visibility: 5mi
Dew Point: 59°   Wind: 10mph
Humidity: 64%   Direction: 200°SSW
Pressure: 29.58"   Gusts: 22mph
Location:  31.87°N, 90.16°W
Report Text: K1R7 232215Z AUTO 20009G19KT 5SM HZ CLR 22/15 A2958 RMK AO2
Loading
Personal Weather Stations






























Interactive Weather Map New forecast layout! Learn more

10-Day Weather Forecast

Advertisements
Track Severe Weather on mobile